Time;durP1;ratioP1;P1;durP2;ratioP2;P2;SDS_P1;SDS_P2;PMS_P1;PMS_P2;Temp;Humidity;BMP_temperature;BMP_pressure;BME280_temperature;BME280_humidity;BME280_pressure;Samples;Min_cycle;Max_cycle;Signal;HPM_P1;HPM_P2
2024/01/09 00:02:19;;;;;;;;;24.50;19.50;;;;;21.25;41.42;103084.81;112246;1253;19864;-34
2024/01/09 00:04:46;;;;;;;;;17.50;17.50;;;;;21.25;41.52;103082.67;112167;1245;20771;-35
2024/01/09 00:07:13;;;;;;;;;22.00;19.00;;;;;21.24;41.40;103083.42;112271;1258;20083;-35
2024/01/09 00:09:41;;;;;;;;;22.00;17.00;;;;;21.24;41.72;103086.11;112124;1260;18838;-34
2024/01/09 00:12:09;;;;;;;;;17.00;16.00;;;;;21.23;41.61;103085.53;112229;1246;21477;-34
2024/01/09 00:14:36;;;;;;;;;18.00;16.00;;;;;21.24;41.84;103082.21;111837;1256;370465;-35
2024/01/09 00:17:03;;;;;;;;;22.00;17.50;;;;;21.24;41.70;103081.80;112323;1260;20058;-35
2024/01/09 00:19:33;;;;;;;;;22.67;19.00;;;;;21.24;41.54;103084.48;112159;1245;20803;-35
2024/01/09 00:22:00;;;;;;;;;19.00;16.00;;;;;21.25;41.70;103082.80;112209;1245;20057;-35
2024/01/09 00:24:27;;;;;;;;;19.33;18.00;;;;;21.25;41.70;103081.92;112121;1245;20297;-34
2024/01/09 00:26:55;;;;;;;;;21.00;19.00;;;;;21.24;41.61;103083.59;112264;1254;20750;-34
2024/01/09 00:29:22;;;;;;;;;16.50;16.00;;;;;21.25;41.53;103081.20;112153;1260;18586;-36
2024/01/09 00:31:49;;;;;;;;;15.33;13.33;;;;;21.25;41.47;103079.91;112313;1246;20127;-34
2024/01/09 00:34:17;;;;;;;;;19.00;17.00;;;;;21.25;41.52;103080.08;112183;1245;19542;-35
2024/01/09 00:36:44;;;;;;;;;19.67;16.33;;;;;21.25;41.68;103082.97;112323;1246;20019;-37
2024/01/09 00:39:11;;;;;;;;;16.50;16.00;;;;;21.24;41.47;103088.00;112190;1247;21275;-34
2024/01/09 00:41:38;;;;;;;;;22.00;17.67;;;;;21.24;41.63;103089.30;112386;1260;19393;-36
2024/01/09 00:44:06;;;;;;;;;16.00;15.00;;;;;21.23;41.22;103085.41;112219;1260;18579;-34
2024/01/09 00:46:33;;;;;;;;;20.67;17.67;;;;;21.24;41.35;103085.06;112129;1260;20061;-36
2024/01/09 00:49:00;;;;;;;;;25.00;19.00;;;;;21.25;40.96;103085.52;112262;1246;20613;-35
2024/01/09 00:51:28;;;;;;;;;20.67;18.33;;;;;21.24;41.08;103085.87;112106;1260;21151;-36
2024/01/09 00:53:55;;;;;;;;;20.50;17.50;;;;;21.24;40.77;103086.58;112271;1253;20008;-34
2024/01/09 00:56:22;;;;;;;;;19.33;18.67;;;;;21.23;40.62;103083.77;112154;1260;19495;-34
2024/01/09 00:58:50;;;;;;;;;19.00;16.00;;;;;21.23;40.52;103084.48;112317;1260;18585;-37
2024/01/09 01:01:17;;;;;;;;;23.00;18.00;;;;;21.23;40.55;103089.05;112180;1253;20008;-35
2024/01/09 01:03:44;;;;;;;;;18.00;17.00;;;;;21.23;40.40;103088.01;112298;1246;21721;-35
2024/01/09 01:06:12;;;;;;;;;19.33;17.67;;;;;21.23;40.60;103093.20;112212;1246;18610;-35
2024/01/09 01:08:39;;;;;;;;;18.67;16.33;;;;;21.24;40.49;103092.20;112309;1247;20240;-38
2024/01/09 01:11:06;;;;;;;;;19.00;16.50;;;;;21.23;40.17;103091.23;112222;1260;20696;-36
2024/01/09 01:13:33;;;;;;;;;24.33;22.00;;;;;21.23;40.19;103091.27;112124;1254;19947;-34
2024/01/09 01:16:01;;;;;;;;;23.00;19.00;;;;;21.21;40.20;103086.53;112231;1245;20018;-34
2024/01/09 01:18:28;;;;;;;;;20.00;19.00;;;;;21.22;40.02;103087.55;112118;1246;20758;-36
2024/01/09 01:20:55;;;;;;;;;16.50;16.50;;;;;21.21;40.07;103086.02;112232;1245;21304;-34
2024/01/09 01:23:23;;;;;;;;;19.00;18.33;;;;;21.21;39.83;103090.04;112151;1260;18870;-37
2024/01/09 01:25:50;;;;;;;;;18.00;18.00;;;;;21.21;39.96;103087.27;112305;1246;20798;-37
2024/01/09 01:28:17;;;;;;;;;16.50;16.50;;;;;21.21;39.75;103085.51;112135;1246;20009;-36
2024/01/09 01:30:45;;;;;;;;;16.50;16.50;;;;;21.20;39.85;103086.90;112128;1260;18722;-36
2024/01/09 01:33:12;;;;;;;;;21.00;19.00;;;;;21.21;39.69;103094.41;112180;1246;20774;-35
2024/01/09 01:35:39;;;;;;;;;17.50;16.00;;;;;21.21;39.70;103090.08;112178;1246;19937;-35
2024/01/09 01:38:07;;;;;;;;;20.00;15.50;;;;;21.20;39.72;103092.14;112187;1260;20056;-36
2024/01/09 01:40:34;;;;;;;;;16.00;14.00;;;;;21.20;39.57;103088.23;112196;1247;20806;-37
2024/01/09 01:43:01;;;;;;;;;20.33;16.00;;;;;21.19;39.56;103088.11;112188;1247;20028;-35
2024/01/09 01:45:29;;;;;;;;;22.00;19.00;;;;;21.20;39.56;103089.30;112119;1245;20106;-36
2024/01/09 01:47:56;;;;;;;;;19.00;16.00;;;;;21.19;39.38;103092.31;112195;1246;22027;-33
2024/01/09 01:50:24;;;;;;;;;18.00;16.50;;;;;21.18;39.24;103096.05;112146;1245;20081;-34
2024/01/09 01:52:51;;;;;;;;;16.50;16.50;;;;;21.19;39.22;103100.20;112188;1260;18690;-35
2024/01/09 01:55:18;;;;;;;;;17.00;16.00;;;;;21.19;39.20;103100.15;112185;1246;20727;-37
2024/01/09 01:57:46;;;;;;;;;16.00;14.00;;;;;21.19;39.05;103096.77;112145;1246;20108;-34
2024/01/09 02:00:13;;;;;;;;;19.00;16.00;;;;;21.20;39.15;103096.96;112143;1260;20042;-35
2024/01/09 02:02:40;;;;;;;;;16.50;16.00;;;;;21.19;39.05;103099.91;112186;1260;19225;-37
2024/01/09 02:05:08;;;;;;;;;17.00;17.00;;;;;21.17;38.89;103099.06;112137;1260;18570;-36
2024/01/09 02:07:35;;;;;;;;;19.00;17.00;;;;;21.18;39.08;103096.98;112215;1246;20190;-39
2024/01/09 02:10:02;;;;;;;;;22.00;16.00;;;;;21.19;38.97;103097.09;112162;1246;22220;-35
2024/01/09 02:12:30;;;;;;;;;16.00;16.00;;;;;21.18;38.68;103098.43;112203;1260;18551;-39
2024/01/09 02:14:57;;;;;;;;;16.00;15.00;;;;;21.18;38.93;103099.20;112150;1245;20132;-35
2024/01/09 02:17:24;;;;;;;;;17.00;16.00;;;;;21.18;38.80;103095.59;112136;1260;19315;-38
2024/01/09 02:19:51;;;;;;;;;20.00;17.00;;;;;21.18;38.79;103096.25;112151;1245;21206;-35
2024/01/09 02:22:19;;;;;;;;;18.00;16.00;;;;;21.18;38.90;103096.47;112155;1260;18725;-36
2024/01/09 02:24:46;;;;;;;;;22.00;17.00;;;;;21.18;38.77;103094.50;112163;1245;20819;-35
2024/01/09 02:27:14;;;;;;;;;22.00;19.00;;;;;21.18;38.71;103099.15;112206;1260;19934;-36
2024/01/09 02:29:41;;;;;;;;;16.00;14.00;;;;;21.19;38.81;103098.36;112187;1245;18596;-35
2024/01/09 02:32:08;;;;;;;;;21.00;17.00;;;;;21.18;38.56;103095.77;112213;1254;22443;-36
2024/01/09 02:34:36;;;;;;;;;19.00;16.00;;;;;21.17;38.81;103098.95;112223;1260;18605;-37
2024/01/09 02:37:03;;;;;;;;;18.00;16.00;;;;;21.17;38.53;103101.46;112155;1246;21567;-37
2024/01/09 02:39:30;;;;;;;;;19.00;18.00;;;;;21.17;38.72;103101.13;112254;1260;19350;-36
2024/01/09 02:41:58;;;;;;;;;19.00;16.00;;;;;21.18;38.38;103103.77;112158;1260;18583;-35
2024/01/09 02:44:25;;;;;;;;;20.00;18.00;;;;;21.18;38.23;103105.19;112167;1260;18676;-34
2024/01/09 02:46:52;;;;;;;;;17.00;16.00;;;;;21.17;38.47;103102.94;112150;1260;19391;-36
2024/01/09 02:49:19;;;;;;;;;17.00;15.00;;;;;21.16;38.37;103105.37;112168;1246;21115;-36
2024/01/09 02:51:47;;;;;;;;;16.00;14.00;;;;;21.15;38.47;103104.15;112175;1260;18671;-35
2024/01/09 02:54:14;;;;;;;;;20.00;19.00;;;;;21.16;38.20;103105.70;112240;1246;21807;-36
2024/01/09 02:56:41;;;;;;;;;19.50;19.50;;;;;21.15;38.04;103101.80;112195;1260;20146;-35
2024/01/09 02:59:09;;;;;;;;;17.00;16.00;;;;;21.14;38.13;103100.17;112188;1253;19988;-39
2024/01/09 03:01:36;;;;;;;;;21.00;19.00;;;;;21.13;38.11;103092.96;112236;1244;20739;-36
2024/01/09 03:04:03;;;;;;;;;19.00;16.50;;;;;21.12;38.30;103095.70;112144;1260;18558;-35
2024/01/09 03:06:31;;;;;;;;;17.00;16.33;;;;;21.12;38.11;103093.48;112251;1245;20103;-37
2024/01/09 03:08:58;;;;;;;;;14.00;14.00;;;;;21.12;38.17;103089.66;112136;1245;20708;-35
2024/01/09 03:11:25;;;;;;;;;19.00;18.00;;;;;21.13;38.28;103089.58;112158;1247;18831;-37
2024/01/09 03:13:52;;;;;;;;;17.00;14.00;;;;;21.13;38.08;103087.69;112142;1246;21250;-34
2024/01/09 03:16:20;;;;;;;;;14.50;14.00;;;;;21.15;37.97;103088.02;112190;1253;19342;-35
2024/01/09 03:18:47;;;;;;;;;14.00;14.00;;;;;21.15;38.26;103089.70;112136;1260;18628;-34
2024/01/09 03:21:14;;;;;;;;;21.00;15.00;;;;;21.13;37.77;103084.98;112122;1260;20103;-35
2024/01/09 03:23:42;;;;;;;;;16.00;16.00;;;;;21.14;37.96;103085.46;112186;1260;19617;-36
2024/01/09 03:26:09;;;;;;;;;16.00;14.00;;;;;21.13;37.76;103084.04;112183;1247;20027;-36
2024/01/09 03:28:36;;;;;;;;;19.50;17.00;;;;;21.13;37.96;103080.93;112226;1246;20151;-36
2024/01/09 03:31:04;;;;;;;;;25.00;19.00;;;;;21.13;38.02;103077.20;112240;1260;19351;-35
2024/01/09 03:33:31;;;;;;;;;16.00;15.00;;;;;21.13;37.76;103079.10;112140;1245;20049;-37
2024/01/09 03:35:58;;;;;;;;;15.00;15.00;;;;;21.13;37.87;103081.69;112251;1246;20115;-35
2024/01/09 03:38:26;;;;;;;;;21.00;18.00;;;;;21.15;37.62;103079.33;112103;1260;20721;-37
2024/01/09 03:40:53;;;;;;;;;17.00;17.00;;;;;21.14;37.48;103077.79;112132;1260;18618;-37
2024/01/09 03:43:20;;;;;;;;;19.00;17.00;;;;;21.14;37.89;103075.98;112159;1260;18581;-35
2024/01/09 03:45:47;;;;;;;;;17.00;14.67;;;;;21.13;37.61;103070.78;112153;1246;20816;-35
2024/01/09 03:48:15;;;;;;;;;16.00;16.00;;;;;21.13;37.84;103071.04;112222;1246;19974;-37
2024/01/09 03:50:42;;;;;;;;;18.00;16.00;;;;;21.13;37.85;103065.34;112159;1245;18855;-35
2024/01/09 03:53:09;;;;;;;;;20.00;18.50;;;;;21.13;37.66;103061.56;112209;1245;21962;-36
2024/01/09 03:55:37;;;;;;;;;21.00;18.00;;;;;21.10;37.71;103058.39;112162;1245;19840;-37
2024/01/09 03:58:04;;;;;;;;;22.00;18.50;;;;;21.09;37.75;103060.53;112289;1260;18706;-35
2024/01/09 04:00:31;;;;;;;;;20.50;17.00;;;;;21.09;37.53;103060.82;112111;1245;21986;-35
2024/01/09 04:02:58;;;;;;;;;18.00;16.00;;;;;21.09;37.65;103059.82;112371;1259;20029;-35
2024/01/09 04:05:26;;;;;;;;;18.67;16.00;;;;;21.09;37.51;103054.88;112227;1244;20168;-35
2024/01/09 04:07:53;;;;;;;;;22.00;21.00;;;;;21.08;37.54;103055.97;112375;1244;19432;-35
2024/01/09 04:10:20;;;;;;;;;21.00;18.00;;;;;21.08;37.58;103058.27;112226;1253;19806;-35
2024/01/09 04:12:48;;;;;;;;;21.33;18.33;;;;;21.08;37.65;103057.35;112146;1244;20145;-35
2024/01/09 04:15:15;;;;;;;;;19.00;18.00;;;;;21.09;37.43;103059.57;112307;1244;20754;-34
2024/01/09 04:17:42;;;;;;;;;18.00;16.00;;;;;21.10;37.50;103060.74;112167;1252;18579;-35
2024/01/09 04:20:10;;;;;;;;;25.00;22.00;;;;;21.09;37.20;103060.91;112305;1252;18731;-36
2024/01/09 04:22:37;;;;;;;;;21.00;16.00;;;;;21.10;37.23;103059.90;112146;1244;20743;-35
2024/01/09 04:25:05;;;;;;;;;19.00;18.33;;;;;21.08;37.28;103059.11;112362;1244;20192;-35
2024/01/09 04:27:32;;;;;;;;;21.00;19.00;;;;;21.08;37.22;103061.88;112158;1253;20007;-34
2024/01/09 04:29:59;;;;;;;;;24.00;21.00;;;;;21.07;37.18;103065.98;112378;1244;20705;-35
2024/01/09 04:32:27;;;;;;;;;22.00;19.00;;;;;21.08;37.12;103060.16;112169;1260;19956;-35
2024/01/09 04:34:54;;;;;;;;;19.00;18.67;;;;;21.07;37.34;103057.98;112385;1260;21214;-36
2024/01/09 04:37:21;;;;;;;;;20.00;19.00;;;;;21.08;37.07;103061.88;112229;1244;20922;-36
2024/01/09 04:39:49;;;;;;;;;24.00;21.00;;;;;21.08;37.26;103060.88;112421;1247;18525;-35
2024/01/09 04:42:16;;;;;;;;;24.00;19.00;;;;;21.08;37.26;103061.20;112254;1252;19989;-35
2024/01/09 04:44:43;;;;;;;;;19.00;18.00;;;;;21.08;37.14;103059.41;112183;1245;20794;-35
2024/01/09 04:47:15;;;;;;;;;24.50;21.50;;;;;21.09;36.93;103055.80;112256;1244;19979;-35
2024/01/09 04:49:42;;;;;;;;;19.00;18.00;;;;;21.09;37.03;103054.70;112149;1244;20149;-39
2024/01/09 04:52:10;;;;;;;;;24.00;20.00;;;;;21.09;37.20;103049.42;112357;1251;20771;-35
2024/01/09 04:54:37;;;;;;;;;27.00;21.00;;;;;21.08;37.16;103048.96;112183;1253;19901;-38
2024/01/09 04:57:04;;;;;;;;;21.00;18.00;;;;;21.08;37.08;103047.92;112361;1260;21648;-36
2024/01/09 04:59:32;;;;;;;;;24.00;22.00;;;;;21.08;36.99;103050.98;112204;1259;19565;-38
2024/01/09 05:02:01;;;;;;;;;19.00;18.00;;;;;21.08;37.00;103053.20;112223;1246;20045;-35
2024/01/09 05:04:29;;;;;;;;;20.50;18.50;;;;;21.07;36.91;103051.65;112293;1259;18807;-38
2024/01/09 05:06:56;;;;;;;;;24.00;22.00;;;;;21.07;36.90;103059.41;112358;1244;20738;-36
2024/01/09 05:09:23;;;;;;;;;21.67;18.67;;;;;21.06;36.82;103060.38;112327;1244;21142;-36
2024/01/09 05:11:51;;;;;;;;;25.00;24.00;;;;;21.07;36.91;103062.27;112385;1259;18675;-38
2024/01/09 05:14:18;;;;;;;;;20.00;20.00;;;;;21.07;37.06;103061.92;112245;1244;20788;-37
2024/01/09 05:16:45;;;;;;;;;22.00;21.00;;;;;21.07;36.97;103066.11;112399;1259;18537;-37
2024/01/09 05:19:12;;;;;;;;;24.00;19.00;;;;;21.07;36.86;103067.38;112278;1253;20056;-38
2024/01/09 05:21:40;;;;;;;;;22.00;21.00;;;;;21.06;36.76;103068.35;112283;1246;20795;-36
2024/01/09 05:24:07;;;;;;;;;25.00;21.67;;;;;21.06;36.70;103065.07;112278;1244;20043;-36
2024/01/09 05:26:34;;;;;;;;;28.00;22.00;;;;;21.06;36.72;103063.66;112340;1244;18687;-35
2024/01/09 05:29:02;;;;;;;;;26.33;24.00;;;;;21.06;36.76;103062.05;112322;1246;20796;-35
2024/01/09 05:31:29;;;;;;;;;33.00;22.00;;;;;21.06;36.70;103062.60;112380;1244;20107;-38
2024/01/09 05:33:56;;;;;;;;;25.00;22.00;;;;;21.05;36.69;103064.45;112355;1244;20127;-35
2024/01/09 05:36:24;;;;;;;;;24.00;23.00;;;;;21.05;36.67;103062.68;112441;1244;20705;-36
2024/01/09 05:38:52;;;;;;;;;24.50;21.00;;;;;21.06;36.61;103065.91;112354;1244;20029;-36
2024/01/09 05:41:19;;;;;;;;;22.00;19.00;;;;;21.05;36.63;103064.33;112407;1244;20133;-35
2024/01/09 05:43:46;;;;;;;;;26.00;21.50;;;;;21.04;36.77;103063.36;112333;1259;19417;-35
2024/01/09 05:46:14;;;;;;;;;28.00;25.00;;;;;21.05;36.63;103059.63;112464;1259;18557;-37
2024/01/09 05:48:42;;;;;;;;;24.00;21.00;;;;;21.05;36.68;103058.38;112274;1244;20133;-38
2024/01/09 05:51:09;;;;;;;;;27.00;23.00;;;;;21.05;36.51;103060.93;112458;1244;20945;-37
2024/01/09 05:53:36;;;;;;;;;21.50;18.50;;;;;21.05;36.71;103062.94;112249;1244;19956;-38
2024/01/09 05:56:04;;;;;;;;;25.00;21.00;;;;;21.05;36.65;103070.15;112499;1244;18669;-35
2024/01/09 05:58:33;;;;;;;;;19.50;17.50;;;;;21.05;36.42;103071.45;112312;1244;20789;-37
2024/01/09 06:01:00;;;;;;;;;21.50;18.50;;;;;21.05;36.67;103074.17;112386;1259;18566;-36
2024/01/09 06:03:27;;;;;;;;;23.00;20.00;;;;;21.06;36.53;103070.14;112268;1259;18698;-37
2024/01/09 06:05:56;;;;;;;;;29.50;21.50;;;;;21.06;36.55;103066.91;112431;1259;20242;-37
2024/01/09 06:08:24;;;;;;;;;19.00;18.50;;;;;21.07;36.56;103066.50;112258;1244;21319;-35
2024/01/09 06:10:51;;;;;;;;;21.50;19.00;;;;;21.07;36.71;103066.79;112363;1244;20018;-35
2024/01/09 06:13:18;;;;;;;;;18.00;15.00;;;;;21.06;36.63;103074.89;112258;1253;20676;-35
2024/01/09 06:15:46;;;;;;;;;19.00;18.00;;;;;21.07;36.73;103079.91;112373;1259;19865;-35
2024/01/09 06:18:13;;;;;;;;;21.00;19.00;;;;;21.06;36.77;103083.77;112275;1259;18843;-35
2024/01/09 06:20:40;;;;;;;;;21.00;19.00;;;;;21.07;36.60;103087.45;112420;1244;20778;-39
2024/01/09 06:23:07;;;;;;;;;21.67;19.00;;;;;21.06;36.76;103091.02;112244;1244;19982;-35
2024/01/09 06:25:35;;;;;;;;;19.00;19.00;;;;;21.07;36.44;103092.98;112471;1259;18724;-35
2024/01/09 06:28:03;;;;;;;;;25.50;24.00;;;;;21.07;36.50;103093.58;112264;1259;21055;-36
2024/01/09 06:30:34;;;;;;;;;20.50;20.00;;;;;21.07;36.58;103094.70;112434;1244;18632;-36
2024/01/09 06:33:01;;;;;;;;;22.00;22.00;;;;;21.22;36.21;103098.23;112387;1244;20176;-35
2024/01/09 06:35:28;;;;;;;;;22.67;19.00;;;;;21.20;36.15;103099.82;112292;1245;20948;-36
2024/01/09 06:37:55;;;;;;;;;18.50;18.00;;;;;21.17;36.42;103102.77;112405;1244;20390;-37
2024/01/09 06:40:24;;;;;;;;;21.50;20.00;;;;;21.19;36.60;103107.54;112250;1259;18852;-39
2024/01/09 06:42:51;;;;;;;;;19.00;18.00;;;;;21.19;36.80;103106.65;112370;1259;20747;-37
2024/01/09 06:45:19;;;;;;;;;20.00;18.00;;;;;21.19;37.16;103111.60;112277;1259;20141;-35
2024/01/09 06:47:46;;;;;;;;;18.00;16.00;;;;;21.23;37.34;103104.19;112352;1259;21156;-37
2024/01/09 06:50:13;;;;;;;;;21.00;16.00;;;;;21.21;37.44;103106.77;112228;1244;20759;-35
2024/01/09 06:52:40;;;;;;;;;16.00;16.00;;;;;21.15;37.57;103108.52;112382;1244;21051;-36
2024/01/09 06:55:08;;;;;;;;;19.00;19.00;;;;;21.25;37.59;103104.25;112278;1259;18684;-34
2024/01/09 06:57:35;;;;;;;;;24.00;21.00;;;;;21.41;37.44;103105.61;112440;1244;20705;-35
2024/01/09 07:00:04;;;;;;;;;22.00;19.00;;;;;21.42;37.62;103107.50;112261;1252;18768;-37
2024/01/09 07:02:31;;;;;;;;;23.00;18.50;;;;;21.38;37.62;103112.43;112354;1253;20054;-36
2024/01/09 07:04:58;;;;;;;;;19.67;19.00;;;;;21.27;38.03;103113.52;112304;1259;19458;-36
2024/01/09 07:07:26;;;;;;;;;22.00;19.00;;;;;21.33;38.36;103118.28;112393;1252;19316;-37
2024/01/09 07:09:54;;;;;;;;;20.00;17.00;;;;;21.35;38.23;103113.96;112312;1245;20247;-36
2024/01/09 07:12:21;;;;;;;;;19.00;18.50;;;;;21.34;37.92;103113.62;112362;1245;21147;-36
2024/01/09 07:14:49;;;;;;;;;17.00;17.00;;;;;21.33;38.11;103117.36;112325;1259;18530;-35
2024/01/09 07:17:16;;;;;;;;;19.00;17.50;;;;;21.29;38.50;103114.48;112364;1259;18683;-38
2024/01/09 07:19:44;;;;;;;;;17.00;15.00;;;;;21.29;38.64;103110.16;112354;1259;19515;-35
2024/01/09 07:22:11;;;;;;;;;19.00;16.00;;;;;21.30;38.74;103114.31;112379;1252;19894;-36
2024/01/09 07:24:38;;;;;;;;;16.00;13.00;;;;;21.30;38.92;103113.40;112325;1244;20026;-36
2024/01/09 07:27:05;;;;;;;;;16.00;14.50;;;;;21.39;38.44;103112.77;112394;1244;19588;-36
2024/01/09 07:29:33;;;;;;;;;20.00;19.00;;;;;21.41;38.51;103116.36;112255;1244;19945;-36
2024/01/09 07:32:00;;;;;;;;;14.00;14.00;;;;;21.37;38.54;103116.38;112243;1244;18849;-35
2024/01/09 07:34:27;;;;;;;;;17.00;16.00;;;;;21.33;38.10;103123.45;112289;1243;19686;-36
2024/01/09 07:36:55;;;;;;;;;20.00;16.00;;;;;21.29;38.63;103123.67;112282;1244;20060;-36
2024/01/09 07:39:22;;;;;;;;;20.00;19.00;;;;;21.22;38.84;103121.05;112296;1244;20460;-35
2024/01/09 07:41:49;;;;;;;;;22.00;18.00;;;;;21.17;38.80;103124.48;112335;1244;20701;-36
2024/01/09 07:44:17;;;;;;;;;19.00;16.00;;;;;21.13;38.64;103128.10;112347;1244;19948;-36
2024/01/09 07:46:45;;;;;;;;;21.00;19.00;;;;;21.12;38.71;103126.23;112299;1244;20093;-36
2024/01/09 07:49:12;;;;;;;;;21.00;19.00;;;;;21.10;38.69;103116.33;112317;1244;20760;-39
2024/01/09 07:51:39;;;;;;;;;21.00;18.00;;;;;21.09;38.62;103113.23;112325;1259;19869;-36
2024/01/09 07:54:07;;;;;;;;;16.00;16.00;;;;;21.09;38.59;103117.97;112335;1244;20110;-35
2024/01/09 07:56:34;;;;;;;;;22.00;18.50;;;;;21.17;38.84;103117.65;112352;1259;21820;-37
2024/01/09 07:59:01;;;;;;;;;21.00;19.00;;;;;21.18;38.32;103117.14;112299;1254;19820;-36
2024/01/09 08:01:30;;;;;;;;;24.50;18.00;;;;;21.20;38.74;103116.13;112408;1244;20133;-36
2024/01/09 08:03:57;;;;;;;;;21.50;18.00;;;;;21.28;38.36;103111.17;112298;1244;20807;-37
2024/01/09 08:06:24;;;;;;;;;18.00;17.00;;;;;21.25;38.52;103111.15;112330;1259;18477;-35
2024/01/09 08:08:52;;;;;;;;;17.00;15.50;;;;;21.34;38.65;103110.77;112284;1245;20091;-35
2024/01/09 08:11:19;;;;;;;;;21.00;16.00;;;;;21.34;38.87;103110.35;112385;1259;19181;-35
2024/01/09 08:13:47;;;;;;;;;17.00;16.00;;;;;21.31;38.72;103111.29;112288;1251;19854;-37
2024/01/09 08:16:15;;;;;;;;;19.00;17.00;;;;;21.28;38.88;103113.14;112312;1253;21117;-35
2024/01/09 08:18:42;;;;;;;;;19.00;18.00;;;;;21.33;39.61;103118.74;112232;1259;19479;-36
2024/01/09 08:21:09;;;;;;;;;22.00;20.00;;;;;21.35;40.25;103118.48;112383;1244;19962;-35
2024/01/09 08:23:37;;;;;;;;;22.33;20.67;;;;;21.44;39.82;103118.77;112278;1259;18824;-37
2024/01/09 08:26:04;;;;;;;;;22.00;19.50;;;;;21.46;39.59;103124.80;112406;1244;20766;-37
2024/01/09 08:28:32;;;;;;;;;31.00;22.50;;;;;21.49;39.59;103131.71;112299;1259;18510;-36
2024/01/09 08:30:59;;;;;;;;;17.33;17.00;;;;;21.54;39.81;103131.19;112366;1244;20108;-36
2024/01/09 08:33:28;;;;;;;;;23.00;18.00;;;;;21.62;39.81;103130.30;112233;1247;21150;-35
2024/01/09 08:35:55;;;;;;;;;22.00;20.00;;;;;21.69;39.96;103132.36;112215;1259;18539;-38
2024/01/09 08:38:23;;;;;;;;;19.00;16.50;;;;;21.73;40.00;103128.86;112164;1253;19793;-37
2024/01/09 08:40:53;;;;;;;;;17.00;16.00;;;;;21.71;40.14;103135.00;112244;1252;20882;-36
2024/01/09 08:43:20;;;;;;;;;20.00;19.50;;;;;21.72;40.13;103143.51;112215;1244;21012;-36
2024/01/09 08:45:48;;;;;;;;;19.33;18.33;;;;;21.75;40.09;103140.60;112153;1260;18897;-39
2024/01/09 08:48:16;;;;;;;;;22.00;19.00;;;;;21.81;39.80;103141.36;112200;1252;20796;-37
2024/01/09 08:50:43;;;;;;;;;19.00;17.33;;;;;21.87;40.06;103140.56;112148;1244;21244;-36
2024/01/09 08:53:10;;;;;;;;;18.00;17.00;;;;;21.96;39.65;103147.26;112216;1244;19105;-36
2024/01/09 08:55:38;;;;;;;;;20.00;19.50;;;;;21.99;39.60;103143.38;112154;1260;21058;-37
2024/01/09 08:58:05;;;;;;;;;25.00;22.00;;;;;22.02;39.60;103140.23;112216;1252;20104;-39
2024/01/09 09:00:32;;;;;;;;;19.00;17.50;;;;;22.06;39.35;103139.92;112189;1244;20505;-38
2024/01/09 09:03:00;;;;;;;;;19.67;19.00;;;;;22.05;39.17;103139.17;112257;1260;19368;-36
2024/01/09 09:05:28;;;;;;;;;23.00;22.00;;;;;22.00;39.19;103139.22;112157;1260;18570;-39
2024/01/09 09:07:55;;;;;;;;;20.00;20.00;;;;;22.06;39.37;103138.16;112218;1260;18750;-35
2024/01/09 09:10:22;;;;;;;;;23.00;23.00;;;;;21.99;39.32;103140.91;112134;1245;22235;-36
2024/01/09 09:12:50;;;;;;;;;19.00;17.00;;;;;22.04;39.44;103143.70;112236;1254;19895;-38
2024/01/09 09:15:17;;;;;;;;;19.00;19.00;;;;;21.99;39.46;103147.20;112157;1246;21432;-36
2024/01/09 09:17:44;;;;;;;;;29.00;22.00;;;;;21.95;39.30;103146.17;112206;1260;19412;-36
2024/01/09 09:20:13;;;;;;;;;41.50;39.50;;;;;21.94;39.53;103147.08;112150;1246;20049;-36
2024/01/09 09:22:40;;;;;;;;;67.50;50.00;;;;;21.99;39.47;103145.11;112191;1253;20300;-39
2024/01/09 09:25:08;;;;;;;;;77.00;58.00;;;;;22.09;38.84;103142.59;112142;1260;19432;-38
2024/01/09 09:27:35;;;;;;;;;75.00;59.00;;;;;22.08;38.49;103140.25;112228;1253;19839;-38
2024/01/09 09:30:02;;;;;;;;;85.00;62.00;;;;;22.07;38.77;103140.50;112141;1253;22040;-36
2024/01/09 09:32:31;;;;;;;;;74.00;54.00;;;;;22.22;38.25;103141.02;112266;1260;20994;-35
2024/01/09 09:34:58;;;;;;;;;69.00;51.33;;;;;22.25;37.92;103136.63;112303;1259;18588;-36
2024/01/09 09:37:25;;;;;;;;;58.00;46.50;;;;;22.21;37.96;103137.11;112362;1244;21316;-38
2024/01/09 09:39:53;;;;;;;;;60.00;47.00;;;;;22.21;38.23;103137.11;112269;1244;21916;-35
2024/01/09 09:42:20;;;;;;;;;64.00;46.50;;;;;22.17;38.14;103132.11;112388;1259;19939;-35
2024/01/09 09:44:47;;;;;;;;;51.50;44.00;;;;;22.29;38.78;103125.34;112233;1244;20064;-36
2024/01/09 09:47:15;;;;;;;;;51.00;41.50;;;;;22.28;38.40;103124.33;112420;1259;19339;-38
2024/01/09 09:49:42;;;;;;;;;47.00;42.00;;;;;22.22;38.67;103126.77;112261;1245;20025;-37
2024/01/09 09:52:10;;;;;;;;;47.50;44.00;;;;;22.21;38.12;103124.98;112420;1246;19997;-35
2024/01/09 09:54:37;;;;;;;;;56.00;40.00;;;;;22.21;38.05;103113.47;112256;1244;20759;-36
2024/01/09 09:57:04;;;;;;;;;50.50;42.00;;;;;22.15;38.55;103105.29;112441;1244;20054;-36
2024/01/09 09:59:32;;;;;;;;;44.00;40.50;;;;;22.13;38.27;103109.39;112271;1252;20342;-36
2024/01/09 10:02:00;;;;;;;;;37.50;33.00;;;;;22.11;38.55;103109.48;112438;1259;19472;-36
2024/01/09 10:04:27;;;;;;;;;39.00;31.50;;;;;22.04;38.68;103112.34;112305;1246;19945;-37
2024/01/09 10:06:55;;;;;;;;;38.00;26.00;;;;;21.85;38.78;103108.52;112465;1259;18824;-35
2024/01/09 10:09:22;;;;;;;;;39.00;28.00;;;;;21.78;39.58;103106.23;112279;1244;20729;-39
2024/01/09 10:11:50;;;;;;;;;31.50;28.50;;;;;21.78;39.19;103102.73;112481;1245;20055;-35
2024/01/09 10:14:17;;;;;;;;;35.00;29.00;;;;;21.71;39.53;103102.21;112287;1244;20060;-39
2024/01/09 10:16:44;;;;;;;;;35.50;29.50;;;;;21.69;39.36;103096.36;112328;1252;20675;-35
2024/01/09 10:19:11;;;;;;;;;35.00;30.50;;;;;21.65;39.40;103094.07;112361;1244;19977;-37
2024/01/09 10:21:39;;;;;;;;;32.00;26.00;;;;;21.65;39.10;103091.81;112296;1252;21288;-39
2024/01/09 10:24:06;;;;;;;;;34.00;25.50;;;;;21.56;39.57;103086.61;112384;1244;20776;-36
2024/01/09 10:26:33;;;;;;;;;28.00;24.00;;;;;21.54;39.76;103092.58;112284;1244;20000;-39
2024/01/09 10:29:01;;;;;;;;;26.00;24.00;;;;;21.55;39.44;103093.05;112405;1244;20157;-37
2024/01/09 10:31:29;;;;;;;;;25.00;23.67;;;;;21.51;39.73;103087.40;112350;1246;20835;-38
2024/01/09 10:33:57;;;;;;;;;29.00;25.00;;;;;21.57;39.31;103089.46;112302;1259;19907;-36
2024/01/09 10:36:24;;;;;;;;;28.50;23.00;;;;;21.56;39.14;103085.45;112318;1259;19983;-40
2024/01/09 10:38:51;;;;;;;;;22.00;21.00;;;;;21.54;39.24;103082.94;112353;1245;21845;-36
2024/01/09 10:41:20;;;;;;;;;28.00;23.00;;;;;21.59;39.29;103082.98;112369;1259;18568;-37
2024/01/09 10:43:47;;;;;;;;;26.00;21.00;;;;;21.59;39.39;103078.84;112299;1259;18722;-38
2024/01/09 10:46:14;;;;;;;;;18.00;18.00;;;;;21.65;39.39;103075.02;112284;1259;19833;-36
2024/01/09 10:48:42;;;;;;;;;19.00;17.00;;;;;21.58;39.58;103076.36;112366;1244;19997;-36
2024/01/09 10:51:09;;;;;;;;;25.00;22.00;;;;;21.59;39.65;103079.63;112267;1244;19960;-36
2024/01/09 10:53:36;;;;;;;;;24.00;22.00;;;;;21.66;39.76;103075.82;112358;1244;21041;-35
2024/01/09 10:56:04;;;;;;;;;23.00;19.00;;;;;21.70;39.97;103075.58;112388;1252;18591;-36
2024/01/09 10:58:31;;;;;;;;;19.00;17.00;;;;;21.71;39.85;103075.48;112351;1259;18922;-36
2024/01/09 11:00:58;;;;;;;;;22.00;19.00;;;;;21.67;39.89;103079.51;112246;1244;20762;-36
2024/01/09 11:03:26;;;;;;;;;20.00;17.00;;;;;21.71;39.97;103077.41;112283;1259;19874;-37